AirNav   Everest Fuels
 
 1028 users online  

8NJ3 Lembo Heliport
Paterson, New Jersey, USA

GOING TO PATERSON?


FAA INFORMATION EFFECTIVE 21 MAY 2020

Location

FAA Identifier: 8NJ3
Lat/Long: 40-54-10.3560N 074-07-58.5150W
40-54.172600N 074-07.975250W
40.9028767,-74.1329208
(estimated)
Elevation: 40 ft. / 12 m (estimated)
Variation: 13W (1985)
From city: 2 miles E of PATERSON, NJ
Time zone: UTC -4 (UTC -5 during Standard Time)
Zip code: 07514

Heliport Operations

Heliport use: CLOSED INDEFINITELY
Activation date: 08/1977
Control tower: no
ARTCC: NEW YORK CENTER
FSS: MILLVILLE FLIGHT SERVICE STATION
Attendance: UNATNDD
Wind indicator: no
Segmented circle: no

Heliport Communications

WX ASOS at TEB (5 nm SE): 132.025 (201-393-0855)
WX ASOS at CDW (7 nm W): 135.5 (973-575-4417)
WX ASOS at EWR (13 nm S): PHONE 973-621-2892
WX AWOS-3PT at JRB (13 nm SE): 128.175 (212-425-1534)
WX ASOS at LGA (14 nm SE): PHONE 718-672-6317
WX AWOS-3 at MMU (14 nm SW): PHONE 973-290-0135
WX AWOS-3 at LDJ (18 nm S): 124.025 (908-862-7383)

Nearby radio navigation aids

VOR radial/distance  VOR name  Freq  Var
TEBr326/4.6TETERBORO VOR/DME108.4011W
LGAr313/14.0LA GUARDIA VOR/DME113.1012W
CRIr339/20.5CANARSIE VOR/DME112.3011W
SAXr129/20.9SPARTA VORTAC115.7011W
JFKr327/23.1KENNEDY VOR/DME115.9012W
BWZr090/31.9BROADWAY VOR/DME114.2011W
SBJr065/33.7SOLBERG VOR/DME112.9010W
CMKr240/33.7CARMEL VOR/DME116.6012W
STWr110/33.8STILLWATER VOR/DME109.6011W
COLr013/35.5COLTS NECK VOR/DME115.4011W
HUOr157/36.8HUGUENOT VOR/DME116.1011W
DPKr292/38.2DEER PARK VOR/DME117.7012W

 
NDB name  Hdg/Dist  Freq  Var  ID
TORBY012/5.921412WTE - .
CHATHAM067/16.625413WCAT -.-. .- -
BABYLON306/36.727514WBBN -... -... -.
STANWYCK198/37.726112WSKU ... -.- ..-

Heliport Services

Runway Information

Helipad H1

Dimensions: 100 x 100 ft. / 30 x 30 m
Surface: asphalt
Traffic pattern: leftleft

Heliport Ownership and Management from official FAA records

Ownership: Privately-owned
Owner: LEMBO RESEARCH & DEV. CO, INC
235 MCLEAN BLVD
PATERSON, NJ 07504
Phone 973-345-5556
Manager: PAUL LEMBO
235 MCLEAN BLVD
PATERSON, NJ 07504
Phone 973-345-5555
OTHER CONTACT; FRANCINE LEMBO 201-519-7636

Additional Remarks

FOR CD CTC NEW YORK APCH AT 800-645-3206.
(ARPT STATUS) ARPT CLSD INDEFLY.

Instrument Procedures

There are no published instrument procedures at 8NJ3.

Some nearby airports with instrument procedures:

KTEB - Teterboro Airport (5 nm SE)
KCDW - Essex County Airport (7 nm W)
N07 - Lincoln Park Airport (9 nm W)
KJRA - West 30th St Heliport (11 nm SE)
6N5 - East 34th Street Heliport (12 nm SE)
KEWR - Newark Liberty International Airport (13 nm S)
KJRB - Downtown Manhattan/Wall Street Heliport (13 nm SE)
KLGA - LaGuardia Airport (14 nm SE)
KMMU - Morristown Municipal Airport (14 nm SW)
4N1 - Greenwood Lake Airport (17 nm NW)
 
Loc | Ops | Rwys | IFR | FBO | Links
Com | Nav | Svcs | Stats | Notes
Area around 8NJ3 (Lembo Heliport)
 
Road maps at: MapQuest Bing Google
 
Aerial photo
No photo
 
Sectional chart

 
Airport distance calculator
Flying to Lembo Heliport? Find the distance to fly.

From to 8NJ3

Sunrise and sunset
Times for 01-Jun-2020
 Local
(UTC-4)
 Zulu
(UTC)
Morning civil twilight04:5508:55
Sunrise05:2809:28
Sunset20:2100:21
Evening civil twilight20:5400:54

Current date and time
Zulu (UTC)  02-Jun-2020 00:12:00
Local (UTC-4)  01-Jun-2020 20:12:00
 
METAR
KTEB 
4nm SE 
012351Z 35005KT 10SM BKN100 OVC120 21/03 A3007 RMK AO2 SLP184 T02060028 10222 20183 55001
KCDW 
7nm W 
012353Z AUTO VRB03KT 10SM FEW110 21/02 A3009 RMK AO2 SLP194 T02110022 10228 20194 55001
KNYC 
10nm SE 
012351Z AUTO 10SM BKN100 20/02 A3012 RMK AO2 SLP189 T02000017 10211 20183 53000 $
KEWR 
13nm S 
012351Z 32010KT 10SM FEW090 BKN120 22/01 A3008 RMK AO2 SLP187 T02170006 10233 20194 53000
KJRB 
13nm SE 
012356Z AUTO VRB03KT 10SM BKN110 21/04 A3010 RMK AO2 SLP191 T02110044 10233 20200 53000
KLGA 
13nm SE 
012351Z 34011KT 10SM BKN100 BKN120 21/02 A3008 RMK AO2 SLP187 T02110017 10222 20194 53001
KMMU 
15nm SW 
011845Z 30011G20KT 10SM BKN095 20/04 A3013
KLDJ 
18nm S 
012355Z AUTO 00000KT 10SM SCT110 21/02 A3009 RMK AO2 T02100015 10222 20192
TAF
KTEB 
4nm SE 
011955Z 0120/0224 29010G17KT P6SM SCT080 FM020000 26004KT P6SM SCT100 BKN150 FM021800 25009G16KT P6SM SCT040 BKN070
KEWR 
13nm S 
011955Z 0120/0224 28013G20KT P6SM SCT080 FM020100 26006KT P6SM SCT100 BKN150 FM021700 25012G19KT P6SM SCT040 BKN070
KLGA 
13nm SE 
011955Z 0120/0224 29010G17KT P6SM SCT080 FM020100 28006KT P6SM SCT100 BKN150 FM021700 24010G17KT P6SM SCT040 BKN070
NOTAMs
Click for the latest NOTAMs
NOTAMs are issued by the DoD/FAA and will open in a separate window not controlled by AirNav.

 

 
 

Would you like to see your business listed on this page?

 If your business provides an interesting product or service to pilots, flight crews, aircraft, or users of the Lembo Heliport, you should consider listing it here.  To start the listing process, click on the button below
 
Add a business
 

Other Pages about Lembo Heliport

Update a link
 
Copyright © AirNav, LLC. All rights reserved. Privacy Policy  Contact